Date,TemperatureHighF,TemperatureAvgF,TemperatureLowF,DewpointHighF,DewpointAvgF,DewpointLowF,HumidityHigh,HumidityAvg,HumidityLow,PressureMaxIn,PressureMinIn,WindSpeedMaxMPH,WindSpeedAvgMPH,GustSpeedMaxMPH,PrecipitationSumIn
2013-8-1,90,84,79,76,75,71,86,75,60,30.03,29.91,15,3,17,0.00
2013-8-2,82,79,77,76,74,73,93,86,81,29.95,29.89,7,1,7,0.00
2013-8-3,88,78,72,78,74,68,95,89,73,30.11,29.99,13,1,28,1.10
2013-8-4,98,85,76,80,76,73,95,76,47,30.08,29.95,18,1,18,0.01
2013-8-5,94,82,77,80,76,73,93,82,59,30.01,29.92,9,2,22,0.03
2013-8-6,94,82,76,80,76,73,94,83,56,29.96,29.85,9,1,21,0.30
2013-8-7,91,83,77,80,76,74,95,80,60,29.95,29.87,11,3,19,0.09
2013-8-8,92,85,79,78,76,73,89,75,60,29.99,29.90,20,4,20,0.07
2013-8-9,88,82,78,77,74,71,86,77,66,30.03,29.92,28,4,28,0.07
2013-8-10,92,84,79,78,76,74,87,76,58,30.09,30.00,15,4,20,0.00
2013-8-11,91,85,80,78,76,75,86,76,61,30.10,30.03,15,3,15,0.00
2013-8-12,89,83,78,77,75,73,89,77,60,30.08,29.99,13,2,17,0.00
2013-8-13,93,85,79,78,76,72,91,74,52,30.01,29.92,18,2,18,0.00
2013-8-14,94,85,78,79,75,73,93,75,55,30.00,29.90,19,3,19,0.00
2013-8-15,89,81,76,78,76,73,92,83,68,30.03,29.93,12,2,12,0.15
2013-8-16,92,85,79,80,77,76,91,79,61,30.02,29.94,17,2,17,0.00
2013-8-17,91,85,81,79,78,76,88,78,64,30.05,29.97,18,3,18,0.00
2013-8-18,90,85,81,79,77,75,85,77,67,30.04,29.96,19,4,19,0.01
2013-8-19,91,85,79,78,76,74,89,77,63,30.04,29.93,20,3,20,0.00
2013-8-20,91,85,80,77,76,73,85,75,58,30.03,29.95,18,3,18,0.00
2013-8-21,89,82,78,80,77,74,92,84,69,30.05,29.96,23,3,23,0.36
2013-8-22,90,83,74,80,77,71,95,82,65,30.06,29.92,25,2,25,0.73
2013-8-23,91,83,79,78,76,73,91,80,59,29.99,29.90,16,2,16,0.00
2013-8-24,92,84,75,79,76,71,92,78,59,30.09,29.94,15,2,15,0.94
2013-8-25,86,80,76,77,75,73,95,86,70,30.12,30.00,15,2,15,0.04
2013-8-26,90,81,75,78,74,71,93,82,64,30.09,29.98,17,2,17,0.03
2013-8-27,87,79,74,76,73,69,94,83,61,30.02,29.94,14,1,14,0.04
2013-8-28,88,79,71,77,74,66,93,84,65,30.01,29.92,20,2,20,0.94
2013-8-29,92,82,74,77,75,72,94,79,59,30.00,29.90,13,2,13,0.00
2013-8-30,95,85,77,78,75,70,93,74,48,29.98,29.86,15,2,15,0.00
2013-8-31,94,81,75,79,74,72,93,81,54,29.95,29.88,14,1,14,0.15